This is the latest recevied weather packets stored in our database for station/object DM4WH-13. If no packets are shown the sender has not sent any weather packets the latest 10 day(s).
| Time | Temp. | Humidity | Pressure | Rain* | Wind** | Luminosity | Snow |
|---|---|---|---|---|---|---|---|
| 1777527922 | 7.22° C | 49% | 1034.3 hPa | 0 mm | 0 m/s | - | - |
| 1777527609 | 7.22° C | 47% | 1034.3 hPa | 0 mm | 0 m/s | - | - |
| 1777527322 | 6.11° C | 49% | 1034.2 hPa | 0 mm | 0 m/s | - | - |
| 1777527009 | 6.11° C | 51% | 1034.2 hPa | 0 mm | 0 m/s | - | - |
| 1777526722 | 5° C | 51% | 1034.1 hPa | 0 mm | 0 m/s | - | - |
| 1777526409 | 3.89° C | 54% | 1034.1 hPa | 0 mm | 0 m/s | - | - |
| 1777526122 | 3.89° C | 58% | 1034.1 hPa | 0 mm | 0.45 m/s, 36° | - | - |
| 1777525810 | 3.89° C | 58% | 1034.1 hPa | 0 mm | 0.45 m/s, 36° | - | - |
| 1777525522 | 2.78° C | 61% | 1034.1 hPa | 0 mm | 0 m/s | - | - |
| 1777525209 | 2.22° C | 64% | 1034.1 hPa | 0 mm | 0 m/s | - | - |
| 1777524922 | 1.11° C | 67% | 1034 hPa | 0 mm | 0 m/s | - | - |
| 1777524609 | 0° C | 74% | 1034 hPa | 0 mm | 0.45 m/s, 36° | - | - |
| 1777524322 | -1.11° C | 75% | 1034 hPa | 0 mm | 0 m/s | - | - |
| 1777524009 | -1.11° C | 79% | 1033.9 hPa | 0 mm | 0 m/s | - | - |
| 1777523722 | -2.22° C | 80% | 1033.8 hPa | 0 mm | 0 m/s | - | - |
| 1777523409 | -2.22° C | 81% | 1033.8 hPa | 0 mm | 0 m/s | - | - |
| 1777523122 | -2.22° C | 81% | 1033.8 hPa | 0 mm | 0 m/s | - | - |
| 1777522809 | -2.22° C | 81% | 1033.8 hPa | 0 mm | 0 m/s | - | - |
| 1777522534 | -2.22° C | 81% | 1033.7 hPa | 0 mm | 0 m/s | - | - |
| 1777522222 | -2.22° C | 81% | 1033.8 hPa | 0 mm | 0 m/s | - | - |
| 1777521909 | -2.78° C | 81% | 1033.7 hPa | 0 mm | 0 m/s | - | - |
| 1777521622 | -2.78° C | 83% | 1033.7 hPa | 0 mm | 0 m/s | - | - |
| 1777521309 | -2.78° C | 82% | 1033.7 hPa | 0 mm | 0 m/s | - | - |
| 1777521022 | -2.78° C | 82% | 1033.6 hPa | 0 mm | 0 m/s | - | - |
| 1777520710 | -2.78° C | 82% | 1033.6 hPa | 0 mm | 0 m/s | - | - |
* Rain latest hour (hover to see other rain measurements)
** Current wind speed in m/s (hover to see current wind gust speed)